Time;durP1;ratioP1;P1;durP2;ratioP2;P2;SDS_P1;SDS_P2;PMS_P1;PMS_P2;Temp;Humidity;BMP_temperature;BMP_pressure;BME280_temperature;BME280_humidity;BME280_pressure;Samples;Min_cycle;Max_cycle;Signal;HPM_P1;HPM_P2
2024/03/14 00:00:52;;;;;;;13.10;4.88;;;-1.20;76.90;;;;;;4950440;29;20078;-80
2024/03/14 00:03:17;;;;;;;9.52;5.18;;;-1.20;76.90;;;;;;4939488;29;20027;-81
2024/03/14 00:05:43;;;;;;;11.13;5.85;;;-1.20;76.90;;;;;;4954468;29;20046;-88
2024/03/14 00:08:09;;;;;;;10.27;5.68;;;-1.20;77.10;;;;;;4955670;29;20012;-86
2024/03/14 00:10:35;;;;;;;10.70;5.43;;;-1.20;77.10;;;;;;4949316;28;20031;-85
2024/03/14 00:13:01;;;;;;;8.68;5.43;;;-1.20;77.10;;;;;;4951523;29;20062;-87
2024/03/14 00:15:30;;;;;;;8.68;5.18;;;-1.20;77.20;;;;;;4943103;29;20042;-85
2024/03/14 00:17:56;;;;;;;12.45;5.97;;;-1.20;77.30;;;;;;4955472;29;20506;-86
2024/03/14 00:20:22;;;;;;;15.18;5.82;;;-1.20;77.30;;;;;;4953060;29;20051;-86
2024/03/14 00:22:48;;;;;;;11.35;5.65;;;-1.10;77.50;;;;;;4955349;29;20110;-88
2024/03/14 00:25:15;;;;;;;11.57;6.55;;;-1.10;77.40;;;;;;4956237;28;20433;-87
2024/03/14 00:27:43;;;;;;;12.02;6.25;;;-1.10;77.40;;;;;;4954525;29;20082;-86
2024/03/14 00:30:11;;;;;;;12.13;6.47;;;-1.10;77.40;;;;;;4954515;28;20353;-87
2024/03/14 00:32:37;;;;;;;12.63;7.43;;;-1.10;77.60;;;;;;4953044;28;20033;-88
2024/03/14 00:35:04;;;;;;;21.20;7.53;;;-1.10;77.50;;;;;;4949000;28;20118;-87
2024/03/14 00:37:30;;;;;;;13.93;7.80;;;-1.10;77.60;;;;;;4952666;28;20024;-87
2024/03/14 00:39:56;;;;;;;11.25;7.05;;;-1.10;77.70;;;;;;4962437;28;20031;-87
2024/03/14 00:42:24;;;;;;;12.73;7.20;;;-1.10;78.60;;;;;;4958331;29;20035;-86
2024/03/14 00:44:53;;;;;;;13.25;6.75;;;-1.10;78.10;;;;;;4946781;28;20556;-86
2024/03/14 00:47:19;;;;;;;14.73;6.95;;;-1.10;78.20;;;;;;4960310;28;20031;-88
2024/03/14 00:49:45;;;;;;;11.48;6.53;;;-1.10;78.20;;;;;;4962791;28;20397;-87
2024/03/14 00:52:11;;;;;;;11.50;7.25;;;-1.10;78.20;;;;;;4958655;28;20027;-86
2024/03/14 00:54:37;;;;;;;13.05;6.40;;;-1.10;78.20;;;;;;4959203;28;20031;-87
2024/03/14 00:57:03;;;;;;;10.90;5.50;;;-1.10;78.00;;;;;;4947044;29;20016;-86
2024/03/14 00:59:30;;;;;;;14.93;8.40;;;-1.10;78.00;;;;;;4958051;29;20599;-86
2024/03/14 01:01:56;;;;;;;15.05;8.65;;;-1.10;78.10;;;;;;4957759;29;20023;-85
2024/03/14 01:04:22;;;;;;;13.80;7.32;;;-1.20;78.00;;;;;;4957455;29;20019;-87
2024/03/14 01:06:49;;;;;;;16.73;9.70;;;-1.20;78.20;;;;;;4957337;29;20114;-87
2024/03/14 01:09:16;;;;;;;17.63;6.97;;;-1.20;78.30;;;;;;4956771;29;20042;-89
2024/03/14 01:11:43;;;;;;;10.35;6.75;;;-1.20;78.50;;;;;;4957254;28;20023;-88
2024/03/14 01:14:11;;;;;;;13.10;8.13;;;-1.20;78.50;;;;;;4957108;28;20043;-87
2024/03/14 01:16:39;;;;;;;12.70;7.78;;;-1.20;78.50;;;;;;4957017;29;20038;-87
2024/03/14 01:19:06;;;;;;;13.60;8.13;;;-1.20;78.70;;;;;;4959624;28;20043;-87
2024/03/14 01:21:40;;;;;;;14.32;7.15;;;-1.20;78.90;;;;;;4958608;29;20031;-87
2024/03/14 01:24:05;;;;;;;12.82;7.20;;;-1.30;78.90;;;;;;4948999;29;20031;-88
2024/03/14 01:26:32;;;;;;;11.25;7.88;;;-1.20;78.90;;;;;;4958514;29;20027;-87
2024/03/14 01:28:59;;;;;;;13.70;7.70;;;-1.20;78.90;;;;;;4955278;28;20024;-88
2024/03/14 01:31:25;;;;;;;16.10;8.25;;;-1.20;79.00;;;;;;4947050;29;20027;-87
2024/03/14 01:33:51;;;;;;;18.60;8.57;;;-1.20;79.10;;;;;;4958326;28;20035;-87
2024/03/14 01:36:17;;;;;;;15.43;8.18;;;-1.20;79.30;;;;;;4956653;28;20472;-88
2024/03/14 01:38:43;;;;;;;13.85;8.55;;;-1.20;79.60;;;;;;4957496;29;20030;-86
2024/03/14 01:41:21;;;;;;;19.20;8.95;;;-1.20;79.60;;;;;;4955436;28;20030;-88
2024/03/14 01:43:57;;;;;;;15.68;9.15;;;-1.20;80.00;;;;;;4956921;28;20031;-88
2024/03/14 01:46:30;;;;;;;18.45;8.75;;;-1.20;80.00;;;;;;4956943;28;20030;-88
2024/03/14 01:48:57;;;;;;;14.73;9.18;;;-1.20;80.30;;;;;;4957825;28;20020;-87
2024/03/14 01:51:24;;;;;;;16.42;9.43;;;-1.30;80.30;;;;;;4956390;28;20027;-89
2024/03/14 01:53:53;;;;;;;16.17;9.00;;;-1.30;80.40;;;;;;4957591;28;20432;-88
2024/03/14 01:56:22;;;;;;;12.63;7.63;;;-1.30;80.40;;;;;;4957349;28;20144;-88
2024/03/14 01:58:49;;;;;;;15.75;8.80;;;-1.30;80.60;;;;;;4956493;29;20019;-88
2024/03/14 02:01:15;;;;;;;17.50;9.50;;;-1.30;80.60;;;;;;4955023;29;20027;-86
2024/03/14 02:03:46;;;;;;;18.10;9.88;;;-1.30;80.90;;;;;;4957740;29;20027;-88
2024/03/14 02:06:25;;;;;;;14.38;8.63;;;-1.30;80.90;;;;;;4957534;29;20031;-88
2024/03/14 02:08:51;;;;;;;16.23;8.30;;;-1.40;81.00;;;;;;4954189;29;20031;-87
2024/03/14 02:11:18;;;;;;;16.48;9.23;;;-1.40;81.00;;;;;;4963254;28;20179;-87
2024/03/14 02:13:44;;;;;;;21.00;10.40;;;-1.40;81.20;;;;;;4970932;28;20078;-87
2024/03/14 02:16:10;;;;;;;17.58;9.23;;;-1.40;81.40;;;;;;4961511;28;20061;-88
2024/03/14 02:18:36;;;;;;;17.45;9.18;;;-1.50;81.50;;;;;;4956730;29;20019;-84
2024/03/14 02:21:02;;;;;;;17.08;9.68;;;-1.50;81.70;;;;;;4958777;28;20094;-86
2024/03/14 02:23:27;;;;;;;20.45;10.23;;;-1.50;81.80;;;;;;4956858;29;20070;-87
2024/03/14 02:25:54;;;;;;;17.98;9.35;;;-1.60;82.40;;;;;;4955957;29;20065;-86
2024/03/14 02:28:21;;;;;;;20.97;9.93;;;-1.60;81.90;;;;;;4954977;29;20031;-86
2024/03/14 02:30:47;;;;;;;;;;;-1.60;82.00;;;;;;4956205;28;20396;-87
2024/03/14 02:33:13;;;;;;;22.55;10.27;;;-1.60;81.90;;;;;;4951439;29;19906;-88
2024/03/14 02:35:39;;;;;;;17.88;9.63;;;-1.70;82.10;;;;;;4944926;29;20032;-88
2024/03/14 02:38:07;;;;;;;16.05;10.07;;;-1.70;82.30;;;;;;4955855;28;20019;-88
2024/03/14 02:40:33;;;;;;;18.73;11.13;;;-1.70;82.50;;;;;;4956967;28;20460;-88
2024/03/14 02:42:58;;;;;;;19.77;10.77;;;-1.80;82.60;;;;;;4956669;28;20026;-85
2024/03/14 02:45:24;;;;;;;21.15;11.00;;;-1.80;82.70;;;;;;4957013;28;20019;-87
2024/03/14 02:47:50;;;;;;;16.52;10.57;;;-1.80;82.90;;;;;;4957147;28;20095;-87
2024/03/14 02:50:16;;;;;;;25.50;11.02;;;-1.80;83.10;;;;;;4956137;29;20133;-87
2024/03/14 02:52:42;;;;;;;14.75;10.25;;;-1.80;83.20;;;;;;4960118;28;20055;-87
2024/03/14 02:55:08;;;;;;;22.77;10.27;;;-1.80;83.30;;;;;;4961578;28;20432;-88
2024/03/14 02:57:34;;;;;;;17.40;9.93;;;-1.80;83.40;;;;;;4955731;28;20035;-87
2024/03/14 03:00:01;;;;;;;19.88;10.68;;;-1.80;83.50;;;;;;4956072;29;20388;-87
2024/03/14 03:02:27;;;;;;;18.58;11.23;;;-1.80;83.60;;;;;;4955790;28;20035;-88
2024/03/14 03:04:53;;;;;;;22.90;10.65;;;-1.90;83.70;;;;;;4956231;29;20472;-87
2024/03/14 03:07:18;;;;;;;21.27;12.80;;;-1.90;83.80;;;;;;4952037;29;20027;-87
2024/03/14 03:09:46;;;;;;;18.75;10.73;;;-1.90;83.90;;;;;;4950371;28;20032;-86
2024/03/14 03:12:15;;;;;;;21.50;10.63;;;-1.90;83.90;;;;;;4955371;28;20034;-86
2024/03/14 03:14:41;;;;;;;21.20;11.57;;;-1.90;84.10;;;;;;4948083;29;20101;-85
2024/03/14 03:17:07;;;;;;;24.52;11.68;;;-1.90;84.20;;;;;;4949537;29;20023;-84
2024/03/14 03:19:36;;;;;;;19.90;11.13;;;-1.90;84.30;;;;;;4949571;28;20046;-86
2024/03/14 03:22:02;;;;;;;20.58;10.10;;;-1.90;84.90;;;;;;4957589;28;20043;-87
2024/03/14 03:24:28;;;;;;;22.92;12.50;;;-1.80;84.50;;;;;;4956861;28;20019;-88
2024/03/14 03:26:53;;;;;;;19.60;10.75;;;-1.80;84.60;;;;;;4955254;28;20180;-86
2024/03/14 03:29:20;;;;;;;20.08;10.82;;;-1.80;84.60;;;;;;4955970;28;20110;-89
2024/03/14 03:31:46;;;;;;;21.50;11.15;;;-1.80;84.50;;;;;;4956117;28;20518;-88
2024/03/14 03:34:11;;;;;;;21.95;10.75;;;-1.90;84.70;;;;;;4957099;28;20118;-87
2024/03/14 03:36:37;;;;;;;19.58;10.05;;;-2.00;84.90;;;;;;4954790;29;20527;-87
2024/03/14 03:39:07;;;;;;;23.65;10.70;;;-2.10;85.10;;;;;;4955220;29;20038;-88
2024/03/14 03:41:32;;;;;;;19.83;11.50;;;-2.10;85.30;;;;;;4956445;28;20102;-86
2024/03/14 03:43:58;;;;;;;19.83;11.80;;;-2.10;85.50;;;;;;4955909;29;20097;-86
2024/03/14 03:46:24;;;;;;;18.88;10.52;;;-2.10;85.70;;;;;;4955830;29;20122;-88
2024/03/14 03:48:51;;;;;;;17.63;10.35;;;-2.20;85.80;;;;;;4955235;28;20126;-87
2024/03/14 03:51:20;;;;;;;18.95;12.10;;;-2.20;85.90;;;;;;4954234;28;20476;-88
2024/03/14 03:53:45;;;;;;;22.05;12.75;;;-2.10;86.00;;;;;;4953658;28;20086;-87
2024/03/14 03:56:11;;;;;;;21.63;11.13;;;-2.20;86.10;;;;;;4956647;28;20035;-86
2024/03/14 03:58:37;;;;;;;20.17;11.15;;;-2.20;86.20;;;;;;4956697;29;20034;-87
2024/03/14 04:01:12;;;;;;;23.83;12.23;;;-2.20;86.30;;;;;;4959290;29;20031;-87
2024/03/14 04:03:40;;;;;;;25.45;11.30;;;-2.20;86.50;;;;;;4945143;29;20484;-87
2024/03/14 04:06:09;;;;;;;22.67;11.63;;;-2.20;86.50;;;;;;4959169;28;20023;-87
2024/03/14 04:08:36;;;;;;;23.88;11.45;;;-2.10;86.80;;;;;;4955736;28;20027;-87
2024/03/14 04:11:02;;;;;;;20.30;11.85;;;-2.10;86.80;;;;;;4953713;28;20023;-87
2024/03/14 04:13:28;;;;;;;27.05;13.77;;;-2.10;86.80;;;;;;4955487;28;20026;-87
2024/03/14 04:15:56;;;;;;;21.23;11.57;;;-2.20;86.80;;;;;;4959337;28;20130;-88
2024/03/14 04:18:22;;;;;;;20.05;11.45;;;-2.10;86.90;;;;;;4958506;28;20024;-86
2024/03/14 04:20:48;;;;;;;27.33;13.32;;;-2.10;86.90;;;;;;4959157;28;20412;-87
2024/03/14 04:23:14;;;;;;;19.95;10.50;;;-2.10;87.00;;;;;;4958448;28;20031;-86
2024/03/14 04:25:40;;;;;;;21.25;11.45;;;-2.10;87.10;;;;;;4952450;28;20119;-90
2024/03/14 04:28:07;;;;;;;23.60;13.10;;;-2.10;87.40;;;;;;4959235;28;20019;-86
2024/03/14 04:30:33;;;;;;;22.73;14.45;;;-2.00;87.50;;;;;;4959190;28;20440;-87
2024/03/14 04:32:59;;;;;;;22.25;12.85;;;-2.00;87.40;;;;;;4959122;28;20028;-87
2024/03/14 04:35:25;;;;;;;24.15;13.57;;;-1.90;87.40;;;;;;4958213;29;20066;-87
2024/03/14 04:37:51;;;;;;;23.35;14.07;;;-1.90;87.30;;;;;;4958132;28;20098;-87
2024/03/14 04:40:19;;;;;;;23.48;13.13;;;-1.80;87.30;;;;;;4948651;28;20098;-88
2024/03/14 04:42:46;;;;;;;19.02;11.43;;;-1.70;87.10;;;;;;4955108;29;20031;-87
2024/03/14 04:45:20;;;;;;;23.60;13.15;;;-1.70;87.10;;;;;;4959539;28;20409;-85
2024/03/14 04:47:48;;;;;;;19.45;12.73;;;-1.60;87.10;;;;;;4958758;28;20023;-87
2024/03/14 04:50:14;;;;;;;22.35;12.93;;;-1.60;87.10;;;;;;4958982;28;20092;-87
2024/03/14 04:52:40;;;;;;;23.63;11.85;;;-1.50;87.00;;;;;;4958020;28;20114;-86
2024/03/14 04:55:09;;;;;;;30.98;14.00;;;-1.40;86.80;;;;;;4957932;28;20023;-85
2024/03/14 04:57:35;;;;;;;24.42;13.18;;;-1.30;86.60;;;;;;4957897;28;20038;-86
2024/03/14 05:00:11;;;;;;;21.10;12.93;;;-1.20;86.40;;;;;;4961862;29;20031;-86
2024/03/14 05:02:40;;;;;;;24.33;12.55;;;-1.20;86.40;;;;;;4961201;28;20454;-87
2024/03/14 05:05:08;;;;;;;24.13;12.75;;;-1.10;86.00;;;;;;4952781;28;20489;-86
2024/03/14 05:07:33;;;;;;;22.75;12.88;;;-1.10;85.80;;;;;;4958857;28;20031;-87
2024/03/14 05:09:59;;;;;;;20.70;10.00;;;-1.10;85.80;;;;;;4959991;28;20038;-85
2024/03/14 05:12:25;;;;;;;20.48;12.27;;;-1.10;85.70;;;;;;4958405;29;20035;-88
2024/03/14 05:14:51;;;;;;;31.63;13.02;;;-1.10;85.70;;;;;;4957269;28;20027;-87
2024/03/14 05:17:20;;;;;;;24.95;11.60;;;-1.10;85.70;;;;;;4958038;28;20078;-87
2024/03/14 05:19:45;;;;;;;18.90;10.73;;;-1.00;85.70;;;;;;4954563;28;20059;-87
2024/03/14 05:22:14;;;;;;;22.67;12.45;;;-1.00;85.70;;;;;;4945129;28;20023;-85
2024/03/14 05:24:41;;;;;;;27.38;13.75;;;-1.00;85.60;;;;;;4955562;28;20125;-85
2024/03/14 05:27:10;;;;;;;26.50;11.75;;;-0.90;85.70;;;;;;4956769;28;20392;-85
2024/03/14 05:29:39;;;;;;;25.60;13.23;;;-0.90;85.50;;;;;;4943902;29;20035;-85
2024/03/14 05:32:20;;;;;;;21.95;11.30;;;-0.80;85.40;;;;;;4957169;29;20028;-83
2024/03/14 05:34:54;;;;;;;22.35;12.10;;;-0.70;85.20;;;;;;4956219;29;20103;-84
2024/03/14 05:37:23;;;;;;;23.65;13.57;;;-0.60;85.00;;;;;;4956439;28;20110;-84
2024/03/14 05:39:49;;;;;;;17.73;13.35;;;-0.50;85.00;;;;;;4942136;29;20082;-84
2024/03/14 05:42:18;;;;;;;18.05;10.40;;;-0.40;84.80;;;;;;4945254;28;20035;-83
2024/03/14 05:44:50;;;;;;;23.65;13.63;;;-0.30;84.40;;;;;;4954636;29;20031;-85
2024/03/14 05:47:16;;;;;;;25.90;12.80;;;-0.20;84.10;;;;;;4956186;28;20082;-85
2024/03/14 05:49:42;;;;;;;25.65;13.60;;;-0.10;83.90;;;;;;4955301;29;20053;-86
2024/03/14 05:52:10;;;;;;;21.98;14.15;;;0.00;83.60;;;;;;4960291;29;20170;-85
2024/03/14 05:54:41;;;;;;;24.05;13.00;;;0.10;83.20;;;;;;4955401;29;20499;-88
2024/03/14 05:57:14;;;;;;;15.80;10.80;;;0.10;82.90;;;;;;4948203;28;20106;-87
2024/03/14 05:59:40;;;;;;;21.02;12.32;;;0.20;82.70;;;;;;4946661;29;20617;-87
2024/03/14 06:02:36;;;;;;;23.33;12.95;;;0.20;82.60;;;;;;4945976;29;20026;-87
2024/03/14 06:05:43;;;;;;;23.25;13.48;;;0.20;82.70;;;;;;4949155;28;20129;-83
2024/03/14 06:08:31;;;;;;;23.23;13.10;;;0.30;82.70;;;;;;4944245;29;20087;-84
2024/03/14 06:11:27;;;;;;;;;;;;;;;;;;;;;
2024/03/14 06:13:53;;;;;;;20.58;12.50;;;0.30;82.40;;;;;;4955809;29;20023;-85
2024/03/14 06:16:19;;;;;;;21.13;11.88;;;0.30;82.20;;;;;;4957160;28;20102;-85
2024/03/14 06:18:45;;;;;;;23.23;10.93;;;0.30;81.90;;;;;;4956788;28;20078;-86
2024/03/14 06:21:11;;;;;;;19.43;11.50;;;0.30;82.00;;;;;;4950706;28;20118;-88
2024/03/14 06:23:37;;;;;;;21.02;11.35;;;0.30;82.30;;;;;;4957111;28;20360;-88
2024/03/14 06:26:04;;;;;;;20.98;12.63;;;0.30;82.30;;;;;;4957998;28;20507;-86
2024/03/14 06:28:30;;;;;;;27.13;12.63;;;0.40;82.50;;;;;;4959484;28;20031;-87
2024/03/14 06:30:56;;;;;;;19.35;11.27;;;0.40;82.50;;;;;;4956349;29;20130;-88
2024/03/14 06:33:21;;;;;;;19.38;12.68;;;0.50;82.40;;;;;;4959001;28;20027;-88
2024/03/14 06:35:47;;;;;;;23.00;12.65;;;0.50;81.90;;;;;;4956552;28;20027;-88
2024/03/14 06:38:14;;;;;;;19.70;11.63;;;0.50;82.10;;;;;;4957158;29;20026;-88
2024/03/14 06:40:40;;;;;;;23.70;13.02;;;0.60;82.10;;;;;;4957545;28;20031;-88
2024/03/14 06:43:06;;;;;;;26.23;13.07;;;0.70;81.80;;;;;;4957102;28;20179;-87
2024/03/14 06:45:33;;;;;;;19.67;11.38;;;0.80;82.20;;;;;;4956573;28;20071;-87
2024/03/14 06:47:59;;;;;;;24.45;12.32;;;0.90;81.30;;;;;;4956802;28;20130;-87
2024/03/14 06:50:25;;;;;;;22.17;11.15;;;0.90;80.70;;;;;;4955848;28;20071;-88
2024/03/14 06:52:51;;;;;;;21.92;12.65;;;0.90;80.90;;;;;;4956001;28;20059;-88
2024/03/14 06:55:17;;;;;;;20.20;11.68;;;1.00;80.60;;;;;;4955941;28;20038;-89
2024/03/14 06:57:45;;;;;;;23.30;11.98;;;1.10;80.30;;;;;;4955589;28;20023;-86
2024/03/14 07:00:22;;;;;;;22.38;12.98;;;1.20;80.00;;;;;;4956089;28;20031;-88
2024/03/14 07:02:52;;;;;;;20.30;11.32;;;1.30;79.70;;;;;;4956228;28;20020;-87
2024/03/14 07:05:19;;;;;;;15.57;10.15;;;1.30;79.10;;;;;;4943996;29;20043;-88
2024/03/14 07:07:45;;;;;;;;;;;1.30;78.80;;;;;;4957472;29;20035;-89
2024/03/14 07:10:16;;;;;;;17.88;10.25;;;1.30;78.70;;;;;;4958382;28;19906;-88
2024/03/14 07:12:43;;;;;;;24.63;12.35;;;1.30;78.50;;;;;;4960789;28;20100;-89
2024/03/14 07:15:12;;;;;;;21.25;11.90;;;1.30;79.00;;;;;;4957292;28;20380;-88
2024/03/14 07:17:42;;;;;;;25.58;14.05;;;1.50;78.90;;;;;;4940479;29;20059;-88
2024/03/14 07:20:18;;;;;;;17.85;11.35;;;1.70;78.50;;;;;;4955309;28;20047;-86
2024/03/14 07:22:45;;;;;;;26.55;13.70;;;1.80;78.00;;;;;;4960099;28;20051;-89
2024/03/14 07:25:18;;;;;;;24.33;11.50;;;2.00;77.50;;;;;;4957025;29;20035;-89
2024/03/14 07:27:44;;;;;;;26.05;12.60;;;2.10;76.90;;;;;;4955354;28;20450;-89
2024/03/14 07:30:14;;;;;;;26.30;12.82;;;2.30;76.30;;;;;;4955393;28;20512;-89
2024/03/14 07:32:46;;;;;;;21.13;10.77;;;2.40;76.20;;;;;;4955399;28;20055;-88
2024/03/14 07:35:13;;;;;;;19.13;10.93;;;2.60;75.30;;;;;;4958772;28;20031;-89
2024/03/14 07:37:40;;;;;;;20.50;12.38;;;2.60;74.60;;;;;;4956038;28;20082;-88
2024/03/14 07:40:11;;;;;;;19.55;10.43;;;3.00;75.10;;;;;;4954909;28;20547;-89
2024/03/14 07:42:39;;;;;;;25.85;12.88;;;4.10;73.80;;;;;;4955408;28;20055;-88
2024/03/14 07:45:07;;;;;;;;;;;5.50;71.90;;;;;;4955275;28;20027;-88
2024/03/14 07:47:33;;;;;;;18.60;11.23;;;7.10;70.20;;;;;;4956319;28;20265;-87
2024/03/14 07:50:00;;;;;;;18.95;12.00;;;7.80;63.10;;;;;;4958480;29;20046;-89
2024/03/14 07:52:26;;;;;;;23.55;13.98;;;8.90;61.50;;;;;;4959330;28;20023;-89
2024/03/14 07:54:53;;;;;;;20.60;12.82;;;10.30;58.90;;;;;;4959718;29;20028;-89
2024/03/14 07:57:20;;;;;;;19.27;13.82;;;11.60;55.20;;;;;;4959915;28;20485;-88
2024/03/14 08:00:21;;;;;;;35.75;14.15;;;12.50;52.20;;;;;;4953217;29;20042;-90
2024/03/14 08:03:50;;;;;;;;;;;;;;;;;;;;;
2024/03/14 08:06:18;;;;;;;21.42;13.63;;;13.70;49.90;;;;;;4953540;29;20038;-88
2024/03/14 08:08:47;;;;;;;19.83;13.32;;;14.50;47.30;;;;;;4958994;28;20027;-86
2024/03/14 08:11:13;;;;;;;16.88;11.27;;;15.10;46.00;;;;;;4957493;29;20051;-88
2024/03/14 08:13:39;;;;;;;21.08;11.73;;;15.40;44.30;;;;;;4958397;28;20061;-88
2024/03/14 08:16:22;;;;;;;16.40;10.73;;;15.60;44.40;;;;;;4958446;28;20088;-89
2024/03/14 08:18:51;;;;;;;17.23;11.93;;;14.70;43.60;;;;;;4958299;28;20022;-89
2024/03/14 08:21:18;;;;;;;16.17;10.98;;;14.80;44.00;;;;;;4958239;28;20523;-85
2024/03/14 08:23:48;;;;;;;18.13;12.90;;;15.00;43.50;;;;;;4958392;28;20102;-89
2024/03/14 08:26:16;;;;;;;20.25;12.27;;;15.40;43.30;;;;;;4958758;28;20067;-88
2024/03/14 08:28:43;;;;;;;13.27;9.93;;;15.20;42.30;;;;;;4958815;28;20106;-87
2024/03/14 08:31:15;;;;;;;16.58;11.00;;;14.20;42.70;;;;;;4957738;29;20094;-89
2024/03/14 08:33:45;;;;;;;16.27;11.25;;;13.50;44.50;;;;;;4958591;28;20068;-89
2024/03/14 08:36:15;;;;;;;17.42;11.10;;;14.20;44.30;;;;;;4958333;28;20039;-87
2024/03/14 08:38:42;;;;;;;20.75;11.38;;;15.10;43.10;;;;;;4958214;28;20027;-87
2024/03/14 08:41:08;;;;;;;19.95;13.00;;;15.70;41.60;;;;;;4957877;28;20027;-87
2024/03/14 08:43:33;;;;;;;18.67;10.95;;;16.30;41.70;;;;;;4958465;28;20043;-88
2024/03/14 08:46:01;;;;;;;14.85;9.82;;;15.10;40.10;;;;;;4958398;28;20380;-88
2024/03/14 08:48:26;;;;;;;;;;;14.10;42.60;;;;;;4958300;28;20362;-87
2024/03/14 08:50:52;;;;;;;20.63;11.75;;;14.50;43.80;;;;;;4958256;28;19917;-88
2024/03/14 08:53:19;;;;;;;15.88;10.20;;;15.80;41.70;;;;;;4957378;29;20027;-90
2024/03/14 08:55:57;;;;;;;11.43;7.47;;;16.90;40.40;;;;;;4957731;29;20113;-85
2024/03/14 08:58:25;;;;;;;15.70;9.82;;;17.50;38.00;;;;;;4956552;28;20023;-87
2024/03/14 09:00:56;;;;;;;12.98;9.18;;;16.50;39.40;;;;;;4956412;29;20066;-88
2024/03/14 09:03:22;;;;;;;10.55;7.22;;;16.60;38.80;;;;;;4961186;28;20027;-88
2024/03/14 09:05:49;;;;;;;12.27;7.97;;;14.90;39.20;;;;;;4960835;29;20059;-87
2024/03/14 09:08:21;;;;;;;14.00;8.00;;;13.40;41.40;;;;;;4957591;29;20111;-85
2024/03/14 09:10:47;;;;;;;11.20;8.38;;;12.60;42.80;;;;;;4955769;29;20054;-86
2024/03/14 09:13:14;;;;;;;11.77;8.80;;;12.20;43.60;;;;;;4957023;28;20030;-87
2024/03/14 09:15:41;;;;;;;11.40;7.90;;;12.70;43.40;;;;;;4957229;28;20035;-86
2024/03/14 09:18:08;;;;;;;13.98;8.85;;;13.40;42.50;;;;;;4957562;28;20027;-87
2024/03/14 09:20:33;;;;;;;11.20;7.95;;;14.20;41.20;;;;;;4956508;28;20158;-86
2024/03/14 09:22:59;;;;;;;12.63;7.95;;;14.00;41.60;;;;;;4955175;29;20441;-87
2024/03/14 09:25:28;;;;;;;14.90;8.27;;;14.40;41.20;;;;;;4956474;28;20078;-87
2024/03/14 09:27:54;;;;;;;10.43;6.93;;;14.20;40.30;;;;;;4956660;28;20477;-87
2024/03/14 09:30:21;;;;;;;15.05;10.10;;;13.90;40.70;;;;;;4957227;28;20042;-86
2024/03/14 09:32:47;;;;;;;17.85;10.57;;;13.20;41.70;;;;;;4956308;28;20099;-87
2024/03/14 09:35:16;;;;;;;13.40;9.68;;;14.10;41.40;;;;;;4956478;28;20402;-87
2024/03/14 09:37:43;;;;;;;15.68;9.63;;;15.50;40.50;;;;;;4954925;29;20031;-87
2024/03/14 09:40:14;;;;;;;14.15;11.18;;;16.60;39.00;;;;;;4956545;28;20031;-85
2024/03/14 09:42:47;;;;;;;14.43;10.02;;;17.20;38.00;;;;;;4956738;28;20039;-85
2024/03/14 09:45:14;;;;;;;13.20;9.35;;;17.00;38.20;;;;;;4956319;28;20143;-85
2024/03/14 09:47:41;;;;;;;;;;;16.30;38.40;;;;;;4959281;28;20123;-88
2024/03/14 09:50:15;;;;;;;12.13;7.88;;;15.90;37.90;;;;;;4956216;28;19906;-89
2024/03/14 09:52:43;;;;;;;11.10;7.00;;;14.50;39.40;;;;;;4956386;28;20043;-87
2024/03/14 09:55:12;;;;;;;10.70;6.63;;;13.70;40.40;;;;;;4955639;29;20031;-87
2024/03/14 09:57:38;;;;;;;9.52;6.85;;;13.30;41.10;;;;;;4955916;28;20082;-87
2024/03/14 10:00:14;;;;;;;13.77;8.55;;;12.30;42.20;;;;;;4955942;28;20045;-87
2024/03/14 10:02:45;;;;;;;11.10;7.25;;;12.80;42.90;;;;;;4955862;28;20062;-87
2024/03/14 10:05:14;;;;;;;15.68;8.93;;;13.10;41.70;;;;;;4955799;28;20085;-89
2024/03/14 10:07:42;;;;;;;9.23;6.93;;;13.70;41.40;;;;;;4956076;28;20384;-86
2024/03/14 10:10:08;;;;;;;11.90;8.95;;;13.60;40.80;;;;;;4953352;28;20035;-89
2024/03/14 10:12:36;;;;;;;13.87;9.10;;;13.80;41.60;;;;;;4954424;29;20094;-85
2024/03/14 10:15:12;;;;;;;12.30;7.78;;;15.30;40.50;;;;;;4957769;28;20446;-86
2024/03/14 10:17:40;;;;;;;9.73;8.18;;;15.90;38.20;;;;;;4954573;29;20019;-86
2024/03/14 10:20:13;;;;;;;11.15;8.35;;;16.20;38.30;;;;;;4954312;28;20055;-88
2024/03/14 10:22:42;;;;;;;11.43;7.68;;;16.50;36.90;;;;;;4956345;28;20110;-85
2024/03/14 10:25:17;;;;;;;12.23;8.50;;;16.00;37.80;;;;;;4955407;29;20106;-84
2024/03/14 10:27:48;;;;;;;15.25;7.88;;;16.10;37.50;;;;;;4955802;28;20042;-86
2024/03/14 10:30:16;;;;;;;10.40;7.40;;;14.90;37.30;;;;;;4955561;28;20114;-87
2024/03/14 10:32:43;;;;;;;13.38;8.50;;;13.60;39.10;;;;;;4956709;28;20022;-85
2024/03/14 10:35:14;;;;;;;14.20;8.85;;;11.90;40.90;;;;;;4955594;28;20130;-86
2024/03/14 10:37:48;;;;;;;13.65;8.85;;;10.70;42.80;;;;;;4955385;28;20031;-85
2024/03/14 10:40:31;;;;;;;15.20;9.63;;;9.40;45.00;;;;;;4953862;29;20147;-86
2024/03/14 10:42:57;;;;;;;12.52;8.43;;;8.70;46.80;;;;;;4955724;28;20019;-86
2024/03/14 10:45:26;;;;;;;12.80;6.53;;;8.30;47.50;;;;;;4957386;28;20117;-87
2024/03/14 10:47:54;;;;;;;8.85;5.00;;;7.70;48.60;;;;;;4955092;28;20472;-86
2024/03/14 10:50:21;;;;;;;13.98;8.38;;;7.20;49.20;;;;;;4955301;28;20035;-86
2024/03/14 10:52:50;;;;;;;16.45;8.68;;;7.00;50.10;;;;;;4955198;28;20027;-86
2024/03/14 10:55:23;;;;;;;15.88;8.38;;;7.00;50.50;;;;;;4949463;28;20032;-85
2024/03/14 10:57:50;;;;;;;12.50;7.97;;;7.10;50.70;;;;;;4949413;29;20049;-85
2024/03/14 11:00:17;;;;;;;12.40;7.65;;;7.30;50.30;;;;;;4953644;29;20118;-86
2024/03/14 11:02:47;;;;;;;;;;;7.40;50.10;;;;;;4955425;28;20106;-85
2024/03/14 11:05:15;;;;;;;15.35;8.57;;;7.20;49.90;;;;;;4955404;29;19906;-86
2024/03/14 11:07:42;;;;;;;15.02;8.75;;;7.10;50.80;;;;;;4955691;28;20382;-87
2024/03/14 11:10:23;;;;;;;18.95;9.45;;;7.10;51.60;;;;;;4955568;28;20416;-86
2024/03/14 11:12:57;;;;;;;20.25;10.05;;;6.70;52.10;;;;;;4953858;29;20485;-85
2024/03/14 11:15:24;;;;;;;20.15;11.60;;;6.70;53.00;;;;;;4955327;28;20063;-85
2024/03/14 11:17:54;;;;;;;16.38;10.18;;;6.70;52.60;;;;;;4954732;28;20023;-86
2024/03/14 11:20:25;;;;;;;10.32;6.80;;;6.70;52.90;;;;;;4954685;28;20055;-86
2024/03/14 11:22:55;;;;;;;18.65;10.30;;;6.60;52.80;;;;;;4954138;28;20023;-86
2024/03/14 11:25:25;;;;;;;22.20;6.07;;;6.30;53.90;;;;;;4955226;28;20035;-87
2024/03/14 11:27:56;;;;;;;14.18;7.15;;;6.40;53.10;;;;;;4959750;28;20038;-87
2024/03/14 11:30:23;;;;;;;11.63;6.30;;;6.10;53.30;;;;;;4964835;28;20027;-86
2024/03/14 11:32:55;;;;;;;13.68;5.47;;;6.00;53.90;;;;;;4959442;28;20099;-86
2024/03/14 11:35:43;;;;;;;14.20;6.75;;;6.00;53.10;;;;;;4960839;29;20419;-86
2024/03/14 11:38:15;;;;;;;15.82;7.57;;;6.10;53.30;;;;;;4955118;28;20054;-85
2024/03/14 11:40:44;;;;;;;10.98;5.50;;;6.30;53.30;;;;;;4953305;29;20031;-86
2024/03/14 11:43:20;;;;;;;9.50;5.00;;;6.40;52.70;;;;;;4954692;28;20111;-86
2024/03/14 11:45:46;;;;;;;12.63;8.60;;;6.30;52.30;;;;;;4954820;28;20035;-86
2024/03/14 11:48:15;;;;;;;9.50;5.22;;;6.10;52.70;;;;;;4954819;29;20067;-86
2024/03/14 11:50:42;;;;;;;14.68;7.53;;;6.10;52.90;;;;;;4954308;28;20078;-85
2024/03/14 11:53:14;;;;;;;12.47;6.90;;;6.10;53.30;;;;;;4954349;28;20019;-86
2024/03/14 11:55:41;;;;;;;11.90;7.47;;;6.20;53.30;;;;;;4954329;28;20301;-83
2024/03/14 11:58:17;;;;;;;15.23;7.03;;;6.40;53.10;;;;;;4953420;29;20019;-85
2024/03/14 12:00:47;;;;;;;7.45;4.22;;;6.30;52.70;;;;;;4955946;28;20504;-86
2024/03/14 12:03:18;;;;;;;8.32;4.68;;;6.30;52.50;;;;;;4954544;29;20019;-86
2024/03/14 12:06:17;;;;;;;12.10;5.15;;;6.20;52.10;;;;;;4955480;28;20055;-88
2024/03/14 12:08:43;;;;;;;9.82;4.65;;;6.20;53.00;;;;;;4942299;29;20023;-86
2024/03/14 12:11:09;;;;;;;11.00;5.32;;;6.20;52.60;;;;;;4958724;28;20547;-87
2024/03/14 12:13:38;;;;;;;10.68;5.82;;;6.10;52.70;;;;;;4958638;29;20146;-85
2024/03/14 12:16:05;;;;;;;11.80;5.50;;;6.00;53.00;;;;;;4955249;28;20118;-88
2024/03/14 12:18:31;;;;;;;12.63;5.65;;;5.90;52.80;;;;;;4954625;28;20484;-88
2024/03/14 12:21:08;;;;;;;12.23;5.78;;;5.90;53.40;;;;;;4954205;28;20067;-89
2024/03/14 12:23:34;;;;;;;6.72;4.38;;;6.00;53.50;;;;;;4954369;28;20027;-87
2024/03/14 12:26:07;;;;;;;9.55;6.38;;;6.10;52.90;;;;;;4954291;28;20035;-85
2024/03/14 12:28:34;;;;;;;9.75;6.00;;;6.00;52.60;;;;;;4954521;28;20365;-87
2024/03/14 12:31:01;;;;;;;7.18;4.72;;;6.00;53.30;;;;;;4954202;28;20031;-85
2024/03/14 12:33:27;;;;;;;10.23;5.95;;;6.10;52.90;;;;;;4959810;28;20506;-87
2024/03/14 12:35:54;;;;;;;14.63;6.50;;;6.10;53.10;;;;;;4957168;28;20114;-87
2024/03/14 12:38:22;;;;;;;12.05;6.53;;;6.20;53.40;;;;;;4958152;28;20113;-88
2024/03/14 12:40:49;;;;;;;8.38;5.03;;;6.30;53.00;;;;;;4956480;29;20058;-87
2024/03/14 12:43:16;;;;;;;9.73;4.78;;;6.40;52.30;;;;;;4958054;28;20376;-86
2024/03/14 12:45:44;;;;;;;12.50;5.67;;;6.40;51.90;;;;;;4958476;28;20445;-86
2024/03/14 12:48:13;;;;;;;7.97;4.93;;;6.40;52.30;;;;;;4966504;28;20261;-86